Time;durP1;ratioP1;P1;durP2;ratioP2;P2;SDS_P1;SDS_P2;PMS_P1;PMS_P2;Temp;Humidity;BMP_temperature;BMP_pressure;BME280_temperature;BME280_humidity;BME280_pressure;Samples;Min_cycle;Max_cycle;Signal;HPM_P1;HPM_P2
2023/01/08 00:01:05;;;;;;;8.50;3.17;;;;;;;10.03;86.14;100066.34;5062072;28;20068;-57
2023/01/08 00:03:32;;;;;;;8.77;3.58;;;;;;;10.02;85.73;100073.44;5033656;28;20049;-58
2023/01/08 00:06:01;;;;;;;8.38;3.33;;;;;;;10.08;86.36;100067.50;5054202;28;20053;-57
2023/01/08 00:08:30;;;;;;;10.48;3.50;;;;;;;10.02;85.59;100073.44;5031394;28;20036;-57
2023/01/08 00:10:57;;;;;;;10.80;3.15;;;;;;;9.94;86.72;100076.94;5065781;28;20521;-58
2023/01/08 00:13:24;;;;;;;8.85;3.33;;;;;;;9.99;85.97;100069.31;5031561;28;20437;-57
2023/01/08 00:15:51;;;;;;;9.73;3.20;;;;;;;9.91;86.25;100061.34;5057703;28;20094;-57
2023/01/08 00:18:18;;;;;;;7.50;3.10;;;;;;;9.85;87.70;100056.72;5041163;28;20048;-58
2023/01/08 00:20:45;;;;;;;8.45;3.22;;;;;;;9.91;86.37;100053.41;5053437;28;20493;-57
2023/01/08 00:23:13;;;;;;;9.80;3.25;;;;;;;9.86;86.68;100070.81;5044277;28;20530;-58
2023/01/08 00:25:40;;;;;;;8.82;3.60;;;;;;;9.86;86.54;100063.69;5046695;28;20053;-57
2023/01/08 00:28:07;;;;;;;8.82;3.67;;;;;;;9.84;86.76;100052.44;5051450;28;20082;-57
2023/01/08 00:30:34;;;;;;;10.05;3.60;;;;;;;9.80;85.98;100051.94;5041078;28;20044;-57
2023/01/08 00:33:01;;;;;;;8.95;3.63;;;;;;;9.84;86.29;100060.41;5041643;28;20132;-57
2023/01/08 00:35:28;;;;;;;11.75;3.83;;;;;;;9.88;86.33;100056.41;5040431;28;20049;-58
2023/01/08 00:37:55;;;;;;;11.38;3.50;;;;;;;9.89;86.80;100060.69;5040181;28;20041;-57
2023/01/08 00:40:21;;;;;;;10.05;3.78;;;;;;;9.89;85.91;100055.41;5063721;28;20048;-57
2023/01/08 00:42:48;;;;;;;9.55;3.75;;;;;;;9.84;86.81;100055.09;5047827;28;20053;-57
2023/01/08 00:45:15;;;;;;;10.07;3.80;;;;;;;9.87;86.94;100048.63;5046406;28;20106;-58
2023/01/08 00:47:42;;;;;;;10.70;3.92;;;;;;;9.92;87.92;100048.97;5039974;28;20056;-57
2023/01/08 00:50:09;;;;;;;10.55;3.97;;;;;;;9.89;87.80;100042.16;5041726;28;20659;-58
2023/01/08 00:52:36;;;;;;;11.55;4.28;;;;;;;9.98;86.98;100045.63;5048539;28;20106;-58
2023/01/08 00:55:03;;;;;;;10.60;3.58;;;;;;;9.95;87.21;100044.16;5030264;28;20084;-57
2023/01/08 00:57:34;;;;;;;10.60;4.03;;;;;;;10.01;86.48;100045.31;5059889;28;20486;-58
2023/01/08 01:00:01;;;;;;;9.55;3.80;;;;;;;9.89;87.15;100031.56;5020179;28;20045;-58
2023/01/08 01:02:28;;;;;;;9.75;3.63;;;;;;;10.02;87.18;100027.56;5059118;28;20092;-57
2023/01/08 01:04:54;;;;;;;8.68;3.80;;;;;;;9.99;87.17;100032.22;5018796;28;20049;-57
2023/01/08 01:07:21;;;;;;;10.15;3.85;;;;;;;10.05;86.69;100027.25;5050845;28;20052;-58
2023/01/08 01:09:48;;;;;;;8.80;3.50;;;;;;;10.02;87.44;100040.81;5038711;28;20077;-58
2023/01/08 01:12:15;;;;;;;10.25;3.13;;;;;;;9.97;86.46;100052.75;5054917;28;20059;-58
2023/01/08 01:14:42;;;;;;;8.43;3.33;;;;;;;9.92;87.37;100033.88;5049495;28;20155;-57
2023/01/08 01:17:10;;;;;;;8.70;2.92;;;;;;;9.96;87.47;100018.47;5052255;28;20052;-58
2023/01/08 01:19:37;;;;;;;7.20;2.92;;;;;;;10.04;87.39;100025.59;5048809;28;20049;-58
2023/01/08 01:22:05;;;;;;;7.63;3.13;;;;;;;9.98;87.84;100032.38;5051800;28;20124;-57
2023/01/08 01:24:32;;;;;;;7.15;3.03;;;;;;;9.95;88.15;100038.84;5051975;28;20049;-58
2023/01/08 01:26:58;;;;;;;7.07;3.00;;;;;;;9.96;88.60;100026.44;5050298;28;20041;-57
2023/01/08 01:29:25;;;;;;;7.55;2.90;;;;;;;9.84;88.09;100017.16;5053113;28;20124;-57
2023/01/08 01:31:56;;;;;;;7.57;3.05;;;;;;;9.95;88.30;100030.06;5050015;28;20478;-57
2023/01/08 01:34:22;;;;;;;6.15;2.80;;;;;;;9.95;88.02;100025.59;5052603;28;20403;-57
2023/01/08 01:36:49;;;;;;;9.20;3.58;;;;;;;9.95;88.29;100022.97;5048792;28;20576;-58
2023/01/08 01:39:16;;;;;;;8.55;3.00;;;;;;;9.99;88.35;100026.91;5053066;28;20076;-58
2023/01/08 01:41:45;;;;;;;7.43;3.15;;;;;;;9.97;88.00;100023.63;5049120;28;20049;-57
2023/01/08 01:44:41;;;;;;;9.63;3.53;;;;;;;9.98;87.97;100032.38;5052034;28;20083;-58
2023/01/08 01:47:17;;;;;;;9.18;3.40;;;;;;;9.99;89.41;100021.63;5050922;28;20670;-57
2023/01/08 01:49:51;;;;;;;8.32;3.45;;;;;;;9.95;87.78;100025.59;5048186;28;20048;-57
2023/01/08 01:52:21;;;;;;;9.45;3.80;;;;;;;10.04;88.87;100029.09;5052678;28;20048;-57
2023/01/08 01:54:50;;;;;;;9.32;3.80;;;;;;;10.03;89.51;100029.25;5048911;28;20123;-58
2023/01/08 01:57:17;;;;;;;9.70;3.78;;;;;;;10.04;88.30;100022.94;5052124;28;20041;-57
2023/01/08 01:59:45;;;;;;;12.07;4.00;;;;;;;10.01;90.95;100018.00;5048702;28;20045;-58
2023/01/08 02:02:12;;;;;;;8.77;3.63;;;;;;;9.89;90.60;100015.66;5052020;28;20053;-58
2023/01/08 02:04:40;;;;;;;8.38;3.55;;;;;;;9.84;92.39;100002.13;5048148;28;20048;-57
2023/01/08 02:07:19;;;;;;;9.48;3.85;;;;;;;9.88;92.32;100006.06;5051776;28;20047;-58
2023/01/08 02:09:51;;;;;;;8.07;3.50;;;;;;;9.86;91.64;100001.91;5063383;28;20045;-58
2023/01/08 02:15:36;;;;;;;7.30;3.22;;;;;;;9.83;92.66;99999.63;5064624;28;20426;-55
2023/01/08 02:18:09;;;;;;;7.40;3.22;;;;;;;9.80;91.12;99996.31;5068372;28;20120;-57
2023/01/08 02:20:42;;;;;;;9.10;3.30;;;;;;;9.74;91.81;99986.38;5066591;28;20593;-57
2023/01/08 02:23:25;;;;;;;9.30;3.38;;;;;;;9.76;92.50;99972.97;5062852;28;20041;-57
2023/01/08 02:26:14;;;;;;;10.18;2.97;;;;;;;9.71;92.35;99972.63;5046113;28;20383;-57
2023/01/08 02:28:52;;;;;;;7.40;3.00;;;;;;;9.78;91.96;99965.69;5051391;28;20094;-56
2023/01/08 02:31:22;;;;;;;8.88;3.50;;;;;;;9.85;91.46;99971.97;5063796;28;20081;-56
2023/01/08 02:33:48;;;;;;;7.78;3.20;;;;;;;9.79;92.37;99965.53;5070176;28;20426;-56
2023/01/08 02:36:29;;;;;;;8.95;2.97;;;;;;;9.79;92.16;99970.00;5063863;28;20498;-56
2023/01/08 02:39:09;;;;;;;9.38;3.28;;;;;;;9.81;91.81;99957.41;5068952;28;20131;-57
2023/01/08 02:41:51;;;;;;;8.90;3.20;;;;;;;9.82;91.42;99942.34;5065532;28;20071;-56
2023/01/08 02:44:29;;;;;;;8.38;3.35;;;;;;;9.73;90.56;99950.31;5059841;28;20395;-57
2023/01/08 02:46:59;;;;;;;8.15;3.30;;;;;;;9.89;90.33;99956.56;5047400;28;20049;-57
2023/01/08 02:49:31;;;;;;;9.25;3.45;;;;;;;9.68;91.14;99934.09;5053760;28;20125;-56
2023/01/08 02:52:01;;;;;;;30.52;4.20;;;;;;;9.78;91.05;99947.13;5067560;28;20044;-57
2023/01/08 02:54:33;;;;;;;7.85;3.33;;;;;;;9.66;91.39;99936.09;5066096;28;20069;-57
2023/01/08 02:57:09;;;;;;;8.43;3.15;;;;;;;9.71;91.62;99927.63;5069110;28;20049;-57
2023/01/08 02:59:38;;;;;;;9.50;3.58;;;;;;;9.83;91.82;99930.75;5065994;28;20546;-56
2023/01/08 03:02:06;;;;;;;11.07;3.47;;;;;;;9.87;91.55;99926.75;5067490;28;20086;-56
2023/01/08 03:04:40;;;;;;;8.55;3.30;;;;;;;9.79;91.88;99917.03;5067595;28;20048;-56
2023/01/08 03:07:07;;;;;;;7.13;3.15;;;;;;;9.75;91.47;99920.97;5058030;28;20053;-57
2023/01/08 03:09:34;;;;;;;7.68;3.30;;;;;;;9.69;92.08;99925.13;5023794;28;20050;-56
2023/01/08 03:12:10;;;;;;;8.55;3.50;;;;;;;9.52;93.16;99921.69;5031133;28;20037;-56
2023/01/08 03:14:46;;;;;;;7.88;3.15;;;;;;;9.73;92.36;99910.59;5057427;28;20191;-57
2023/01/08 03:17:35;;;;;;;11.80;3.30;;;;;;;9.69;92.90;99913.72;5048227;28;20070;-58
2023/01/08 03:20:08;;;;;;;10.68;3.47;;;;;;;9.59;93.28;99906.78;5068850;28;20410;-57
2023/01/08 03:22:39;;;;;;;10.25;3.40;;;;;;;9.59;93.93;99909.44;5063607;28;20044;-56
2023/01/08 03:25:08;;;;;;;7.88;3.40;;;;;;;9.53;94.41;99902.19;5063252;28;20047;-56
2023/01/08 03:27:43;;;;;;;8.75;3.60;;;;;;;9.55;94.38;99896.69;5049839;28;20087;-57
2023/01/08 03:30:11;;;;;;;11.02;3.80;;;;;;;9.61;94.64;99898.69;5054622;28;20399;-56
2023/01/08 03:32:40;;;;;;;9.50;3.67;;;;;;;9.58;94.74;99909.59;5051409;28;20049;-57
2023/01/08 03:35:10;;;;;;;8.95;3.58;;;;;;;9.52;94.98;99911.09;5055568;28;20128;-56
2023/01/08 03:37:42;;;;;;;8.82;3.50;;;;;;;9.52;95.07;99911.09;5011679;28;20050;-56
2023/01/08 03:40:12;;;;;;;;;;;;;;;9.59;95.29;99917.38;5016758;28;20052;-56
2023/01/08 03:42:39;;;;;;;10.65;3.72;;;;;;;9.67;94.77;99915.72;5011832;28;19922;-57
2023/01/08 03:45:06;;;;;;;9.65;3.40;;;;;;;9.61;95.13;99912.75;5030562;28;20087;-56
2023/01/08 03:47:36;;;;;;;9.50;3.60;;;;;;;9.64;95.02;99908.94;5049192;28;20402;-57
2023/01/08 03:50:08;;;;;;;10.30;3.92;;;;;;;9.66;94.92;99901.66;5055632;28;20075;-57
2023/01/08 03:52:34;;;;;;;;;;;;;;;9.57;95.93;99900.03;5050469;28;20049;-56
2023/01/08 03:55:02;;;;;;;9.70;3.33;;;;;;;9.59;96.31;99896.19;5055455;28;19920;-57
2023/01/08 03:57:28;;;;;;;7.25;3.25;;;;;;;9.60;96.38;99897.88;5049945;28;20045;-57
2023/01/08 03:59:55;;;;;;;8.15;3.28;;;;;;;9.63;96.22;99894.03;5054009;28;20083;-57
2023/01/08 04:02:22;;;;;;;9.73;3.50;;;;;;;9.67;96.24;99895.34;5051911;28;20059;-57
2023/01/08 04:04:49;;;;;;;9.70;3.05;;;;;;;9.64;96.32;99893.06;5054388;28;20049;-56
2023/01/08 04:07:15;;;;;;;11.43;4.45;;;;;;;9.60;96.34;99892.56;5050930;28;20144;-57
2023/01/08 04:09:42;;;;;;;6.95;3.22;;;;;;;9.68;95.55;99897.00;5052394;28;20110;-57
2023/01/08 04:12:08;;;;;;;8.00;3.10;;;;;;;9.70;95.30;99888.91;5027666;28;20052;-56
2023/01/08 04:14:35;;;;;;;6.22;2.80;;;;;;;9.71;94.62;99895.84;5033946;28;20454;-56
2023/01/08 04:17:02;;;;;;;7.20;3.03;;;;;;;9.72;94.28;99884.25;5034538;28;20586;-57
2023/01/08 04:19:29;;;;;;;7.38;2.88;;;;;;;9.77;94.28;99887.22;5031028;28;20054;-56
2023/01/08 04:21:55;;;;;;;6.47;2.97;;;;;;;9.82;94.77;99884.88;5053276;28;20060;-56
2023/01/08 04:24:22;;;;;;;6.68;2.65;;;;;;;9.76;94.78;99883.75;5048562;28;20402;-56
2023/01/08 04:26:49;;;;;;;11.35;3.13;;;;;;;9.73;95.43;99875.31;5055132;28;20501;-56
2023/01/08 04:29:15;;;;;;;8.35;2.65;;;;;;;9.73;95.32;99865.56;5044771;28;20037;-56
2023/01/08 04:31:42;;;;;;;7.13;3.03;;;;;;;9.50;96.16;99875.22;5051647;28;20080;-56
2023/01/08 04:34:09;;;;;;;7.20;2.63;;;;;;;9.62;96.62;99876.47;5030339;28;20060;-56
2023/01/08 04:36:36;;;;;;;7.43;2.80;;;;;;;9.62;96.82;99879.13;5033087;28;20510;-56
2023/01/08 04:39:03;;;;;;;6.97;3.05;;;;;;;9.62;96.93;99889.72;5049960;28;20110;-56
2023/01/08 04:41:30;;;;;;;6.88;2.63;;;;;;;9.59;97.19;99885.59;5054598;28;20075;-56
2023/01/08 04:43:57;;;;;;;6.95;3.13;;;;;;;9.61;97.01;99883.59;5029954;28;20037;-56
2023/01/08 04:46:24;;;;;;;7.85;3.00;;;;;;;9.63;96.52;99872.84;5034450;28;20080;-57
2023/01/08 04:48:50;;;;;;;8.75;3.10;;;;;;;9.65;96.53;99873.50;5029634;28;20077;-57
2023/01/08 04:51:17;;;;;;;6.50;2.67;;;;;;;9.67;95.86;99874.16;5034648;28;20056;-57
2023/01/08 04:53:45;;;;;;;7.32;2.78;;;;;;;9.63;96.76;99864.91;5044780;28;20095;-57
2023/01/08 04:56:12;;;;;;;5.60;2.60;;;;;;;9.60;96.70;99871.38;5054525;28;20057;-57
2023/01/08 04:58:39;;;;;;;7.80;2.55;;;;;;;9.62;96.50;99855.31;5047658;28;20398;-56
2023/01/08 05:01:14;;;;;;;7.93;3.03;;;;;;;9.68;96.39;99857.28;5044828;28;20045;-57
2023/01/08 05:03:41;;;;;;;9.10;3.05;;;;;;;9.71;94.82;99858.75;5029972;28;20518;-56
2023/01/08 05:06:08;;;;;;;6.93;2.72;;;;;;;9.62;95.72;99860.59;5040669;28;20045;-56
2023/01/08 05:08:34;;;;;;;7.05;2.67;;;;;;;9.59;95.55;99863.59;5026608;28;20053;-57
2023/01/08 05:11:03;;;;;;;7.10;2.78;;;;;;;9.58;95.31;99864.59;5027143;28;20048;-57
2023/01/08 05:13:30;;;;;;;8.15;2.42;;;;;;;9.65;94.81;99865.56;5043153;28;20131;-56
2023/01/08 05:15:59;;;;;;;9.25;2.70;;;;;;;9.74;93.65;99859.25;5038333;28;20052;-56
2023/01/08 05:18:27;;;;;;;7.78;2.58;;;;;;;9.74;94.13;99861.91;5053748;28;20045;-58
2023/01/08 05:20:58;;;;;;;8.77;2.95;;;;;;;9.73;92.78;99856.75;5043242;28;20495;-56
2023/01/08 05:23:25;;;;;;;8.02;3.33;;;;;;;9.76;93.18;99851.13;5034073;28;20069;-56
2023/01/08 05:25:51;;;;;;;7.65;3.03;;;;;;;9.77;92.83;99850.97;5036349;28;20091;-57
2023/01/08 05:28:18;;;;;;;9.45;3.50;;;;;;;9.67;92.72;99845.03;5053850;28;20051;-56
2023/01/08 05:30:44;;;;;;;9.13;3.42;;;;;;;9.60;91.91;99838.75;5047219;28;20045;-56
2023/01/08 05:33:11;;;;;;;8.30;3.55;;;;;;;9.65;92.59;99839.09;5053598;28;20135;-56
2023/01/08 05:35:38;;;;;;;10.43;2.83;;;;;;;9.65;92.55;99843.56;5045666;28;20474;-56
2023/01/08 05:38:05;;;;;;;11.88;3.08;;;;;;;9.68;91.41;99851.16;5053480;28;20592;-56
2023/01/08 05:40:32;;;;;;;9.07;3.63;;;;;;;9.67;91.80;99849.50;5040495;28;20045;-57
2023/01/08 05:43:00;;;;;;;7.70;3.00;;;;;;;9.61;92.04;99851.84;5033663;28;20558;-56
2023/01/08 05:45:26;;;;;;;10.07;3.35;;;;;;;9.65;92.71;99846.22;5030510;28;20069;-58
2023/01/08 05:47:54;;;;;;;8.52;3.13;;;;;;;9.65;93.22;99841.72;5033246;28;20049;-57
2023/01/08 05:50:22;;;;;;;10.13;3.10;;;;;;;9.68;92.25;99849.34;5029382;28;20052;-57
2023/01/08 05:52:50;;;;;;;18.67;3.25;;;;;;;9.60;92.56;99836.97;5033652;28;20104;-56
2023/01/08 05:55:16;;;;;;;8.27;3.10;;;;;;;9.57;91.97;99839.13;5032119;28;20067;-57
2023/01/08 05:57:43;;;;;;;8.77;2.63;;;;;;;9.51;91.41;99842.44;5053296;28;20045;-56
2023/01/08 06:00:10;;;;;;;7.13;2.83;;;;;;;9.53;92.05;99846.56;5037401;28;20060;-57
2023/01/08 06:02:39;;;;;;;7.28;2.42;;;;;;;9.56;91.50;99850.69;5035422;28;20049;-56
2023/01/08 06:05:06;;;;;;;7.63;2.70;;;;;;;9.56;91.16;99832.97;5032643;28;20045;-56
2023/01/08 06:07:33;;;;;;;9.07;2.58;;;;;;;9.57;91.62;99841.78;5044203;28;20052;-56
2023/01/08 06:10:00;;;;;;;6.70;2.65;;;;;;;9.58;91.39;99838.09;5029110;28;20128;-56
2023/01/08 06:12:26;;;;;;;6.68;2.75;;;;;;;9.59;89.94;99839.78;5037356;28;20049;-57
2023/01/08 06:14:53;;;;;;;6.03;2.25;;;;;;;9.67;88.77;99836.28;5031793;28;20045;-57
2023/01/08 06:17:20;;;;;;;8.73;2.75;;;;;;;9.62;90.02;99839.41;5032896;28;20050;-56
2023/01/08 06:19:47;;;;;;;7.30;2.80;;;;;;;9.64;88.90;99839.25;5033448;28;20052;-56
2023/01/08 06:22:13;;;;;;;9.80;3.03;;;;;;;9.58;89.22;99840.75;5044147;28;20056;-57
2023/01/08 06:24:40;;;;;;;9.40;3.35;;;;;;;9.60;88.24;99828.16;5053139;28;20044;-58
2023/01/08 06:27:07;;;;;;;8.98;2.95;;;;;;;9.56;86.91;99826.88;5041851;28;20048;-56
2023/01/08 06:29:33;;;;;;;9.43;2.70;;;;;;;9.67;87.26;99825.69;5033083;28;20477;-57
2023/01/08 06:32:00;;;;;;;10.57;2.90;;;;;;;9.69;87.75;99818.38;5028531;28;20056;-58
2023/01/08 06:34:28;;;;;;;9.45;2.80;;;;;;;9.70;87.70;99852.66;5032749;28;20041;-56
2023/01/08 06:36:54;;;;;;;4.38;1.52;;;;;;;9.56;87.41;99938.88;5028977;28;20073;-57
2023/01/08 06:39:21;;;;;;;5.82;1.40;;;;;;;8.82;92.20;99922.16;5043727;28;20055;-56
2023/01/08 06:41:48;;;;;;;3.65;1.25;;;;;;;8.73;93.24;99926.63;5048662;28;20060;-56
2023/01/08 06:44:14;;;;;;;4.85;1.40;;;;;;;8.44;93.21;99927.00;5048366;28;20053;-56
2023/01/08 06:46:41;;;;;;;7.07;1.50;;;;;;;8.40;95.72;99925.63;5048483;28;20394;-57
2023/01/08 06:49:08;;;;;;;5.55;1.42;;;;;;;8.08;96.14;99922.72;5050937;28;20052;-57
2023/01/08 06:51:35;;;;;;;8.32;1.50;;;;;;;7.93;97.86;99915.53;5048508;28;20045;-56
2023/01/08 06:54:03;;;;;;;7.05;1.50;;;;;;;7.90;98.11;99913.22;5044858;28;20061;-56
2023/01/08 06:56:29;;;;;;;6.85;1.50;;;;;;;7.78;98.53;99912.63;5028772;28;20128;-56
2023/01/08 06:58:56;;;;;;;7.15;2.00;;;;;;;7.75;99.66;99907.66;5037051;28;20707;-57
2023/01/08 07:01:23;;;;;;;6.18;1.42;;;;;;;7.73;98.81;99899.06;5051623;28;20049;-56
2023/01/08 07:03:50;;;;;;;9.30;2.35;;;;;;;7.87;98.59;99888.75;5055027;28;20112;-56
2023/01/08 07:06:19;;;;;;;6.03;1.77;;;;;;;7.83;98.89;99895.34;5040300;28;20391;-57
2023/01/08 07:08:47;;;;;;;8.48;2.17;;;;;;;7.89;98.28;99904.44;5012238;28;20045;-57
2023/01/08 07:11:15;;;;;;;5.95;1.75;;;;;;;7.79;99.96;99904.56;5005392;28;20045;-56
2023/01/08 07:13:42;;;;;;;9.73;1.80;;;;;;;7.74;98.33;99903.38;5021239;28;20060;-56
2023/01/08 07:16:11;;;;;;;6.72;1.67;;;;;;;7.74;100.00;99906.03;5043253;28;20105;-56
2023/01/08 07:18:38;;;;;;;8.15;1.73;;;;;;;7.69;99.54;99917.88;5032259;28;20744;-57
2023/01/08 07:21:07;;;;;;;7.53;2.08;;;;;;;7.59;100.00;99926.88;5036120;28;20045;-56
2023/01/08 07:23:35;;;;;;;9.85;2.33;;;;;;;7.61;100.00;99928.38;5031120;28;20491;-57
2023/01/08 07:26:04;;;;;;;5.70;1.55;;;;;;;7.59;100.00;99932.16;5036100;28;20041;-56
2023/01/08 07:28:30;;;;;;;8.23;2.08;;;;;;;7.64;100.00;99925.44;5043258;28;20094;-56
2023/01/08 07:31:02;;;;;;;6.35;1.80;;;;;;;7.64;100.00;99916.66;5054316;28;20501;-57
2023/01/08 07:33:28;;;;;;;5.32;1.48;;;;;;;7.71;100.00;99922.97;5051754;28;20063;-57
2023/01/08 07:35:56;;;;;;;6.65;1.40;;;;;;;7.76;100.00;99915.44;5049257;28;20049;-56
2023/01/08 07:38:23;;;;;;;6.38;1.52;;;;;;;7.79;100.00;99916.94;5031645;28;20049;-56
2023/01/08 07:40:49;;;;;;;5.55;1.30;;;;;;;7.84;100.00;99919.91;5036758;28;20076;-57
2023/01/08 07:43:16;;;;;;;6.13;1.60;;;;;;;7.87;100.00;99919.63;5051319;28;20044;-56
2023/01/08 07:45:43;;;;;;;7.57;1.40;;;;;;;7.81;99.87;99915.78;5022525;28;20129;-57
2023/01/08 07:48:14;;;;;;;6.20;1.50;;;;;;;7.87;97.37;99919.63;5031107;28;20041;-57
2023/01/08 07:50:43;;;;;;;5.70;1.55;;;;;;;7.85;96.77;99913.66;5038672;28;20041;-56
2023/01/08 07:53:11;;;;;;;4.75;1.40;;;;;;;7.80;98.27;99908.03;5051077;28;20453;-57
2023/01/08 07:55:39;;;;;;;7.60;1.80;;;;;;;7.82;98.73;99900.78;5052035;28;20063;-56
2023/01/08 07:58:08;;;;;;;5.57;1.63;;;;;;;7.82;98.51;99903.41;5031144;28;20400;-56
2023/01/08 08:00:35;;;;;;;6.22;1.65;;;;;;;7.88;98.45;99894.88;5038420;28;20051;-57
2023/01/08 08:03:05;;;;;;;7.43;1.90;;;;;;;7.90;98.47;99894.72;5038827;28;20053;-56
2023/01/08 08:05:32;;;;;;;6.75;1.80;;;;;;;7.95;98.51;99903.84;5035224;28;20038;-56
2023/01/08 08:08:00;;;;;;;11.93;2.60;;;;;;;7.98;97.49;99892.94;5030604;28;20049;-57
2023/01/08 08:10:27;;;;;;;9.75;2.05;;;;;;;7.93;98.16;99897.03;5037829;28;20064;-57
2023/01/08 08:12:53;;;;;;;11.38;2.13;;;;;;;7.83;96.45;99890.06;5030457;28;20042;-57
2023/01/08 08:15:20;;;;;;;9.00;2.20;;;;;;;7.87;96.89;99877.38;5034648;28;20399;-57
2023/01/08 08:17:48;;;;;;;8.38;1.75;;;;;;;7.80;96.67;99886.91;5027440;28;20119;-56
2023/01/08 08:20:14;;;;;;;5.63;1.92;;;;;;;7.81;96.20;99889.38;5037733;28;20052;-56
2023/01/08 08:22:42;;;;;;;8.02;1.85;;;;;;;7.80;96.82;99897.47;5034717;28;20471;-57
2023/01/08 08:25:09;;;;;;;11.13;2.10;;;;;;;7.77;95.78;99890.69;5029939;28;20049;-57
2023/01/08 08:27:36;;;;;;;6.45;2.05;;;;;;;7.78;96.10;99902.06;5036956;28;20486;-57
2023/01/08 08:30:03;;;;;;;8.98;2.30;;;;;;;7.82;95.54;99898.97;5029098;28;20076;-57
2023/01/08 08:32:30;;;;;;;11.38;2.67;;;;;;;7.78;94.77;99912.63;5033177;28;20479;-58
2023/01/08 08:34:57;;;;;;;10.50;2.28;;;;;;;7.92;93.67;99895.41;5028506;28;20410;-57
2023/01/08 08:37:23;;;;;;;14.00;2.42;;;;;;;7.95;94.09;99889.78;5033498;28;20107;-57
2023/01/08 08:39:51;;;;;;;10.05;2.50;;;;;;;7.93;94.71;99887.31;5029228;28;20495;-57
2023/01/08 08:42:18;;;;;;;13.82;2.70;;;;;;;7.89;95.29;99883.31;5034851;28;20045;-57
2023/01/08 08:44:44;;;;;;;14.75;2.65;;;;;;;7.92;94.56;99874.25;5029987;28;20528;-56
2023/01/08 08:47:11;;;;;;;13.68;3.15;;;;;;;7.91;94.41;99881.34;5034510;28;20099;-57
2023/01/08 08:49:38;;;;;;;13.20;2.88;;;;;;;7.88;94.18;99871.94;5030367;28;20045;-49
2023/01/08 08:52:05;;;;;;;15.68;3.08;;;;;;;7.81;92.06;99873.53;5034271;28;20483;-48
2023/01/08 08:54:32;;;;;;;19.67;3.47;;;;;;;7.83;93.22;99862.84;5029849;28;20049;-49
2023/01/08 08:56:59;;;;;;;11.88;3.00;;;;;;;7.84;92.57;99862.69;5036621;28;20048;-48
2023/01/08 08:59:26;;;;;;;20.00;3.72;;;;;;;7.90;92.84;99861.22;5030074;28;20041;-50
2023/01/08 09:01:52;;;;;;;11.38;3.15;;;;;;;7.88;92.90;99858.72;5034266;28;20499;-48
2023/01/08 09:04:20;;;;;;;16.20;3.25;;;;;;;7.92;92.69;99861.06;5029631;28;20057;-48
2023/01/08 09:06:46;;;;;;;17.48;3.35;;;;;;;7.89;91.17;99864.81;5033520;28;20092;-48
2023/01/08 09:09:14;;;;;;;16.42;3.58;;;;;;;8.08;89.19;99859.31;5026146;28;20388;-49
2023/01/08 09:11:41;;;;;;;19.27;3.88;;;;;;;8.05;91.29;99859.63;5022063;28;20038;-48
2023/01/08 09:14:09;;;;;;;23.10;4.30;;;;;;;8.14;92.29;99849.09;5027916;28;20108;-47
2023/01/08 09:16:36;;;;;;;17.17;4.57;;;;;;;8.13;92.36;99866.78;5032992;28;20041;-48
2023/01/08 09:19:03;;;;;;;17.60;4.00;;;;;;;8.22;89.68;99863.16;5029672;28;20049;-48
2023/01/08 09:21:29;;;;;;;16.08;3.35;;;;;;;8.36;88.89;99863.53;5033837;28;20517;-46
2023/01/08 09:23:56;;;;;;;21.17;3.55;;;;;;;8.41;89.10;99848.84;5028757;28;20063;-49
2023/01/08 09:26:23;;;;;;;10.75;3.00;;;;;;;8.37;88.84;99857.25;5033700;28;20045;-50
2023/01/08 09:28:50;;;;;;;16.85;3.08;;;;;;;8.57;88.59;99858.66;5029638;28;20099;-49
2023/01/08 09:31:16;;;;;;;11.05;2.60;;;;;;;8.67;88.83;99855.84;5033564;28;20056;-50
2023/01/08 09:33:43;;;;;;;10.75;2.40;;;;;;;8.85;88.63;99853.06;5029203;28;20055;-49
2023/01/08 09:36:11;;;;;;;9.77;2.22;;;;;;;8.94;86.77;99857.38;5049187;28;20049;-50
2023/01/08 09:38:37;;;;;;;11.88;2.05;;;;;;;9.09;87.89;99854.88;5028813;28;20050;-49
2023/01/08 09:41:08;;;;;;;12.13;2.50;;;;;;;9.18;85.70;99848.59;5033675;28;20095;-50
2023/01/08 09:43:42;;;;;;;11.95;2.45;;;;;;;9.34;85.27;99852.22;5028629;28;20060;-56
2023/01/08 09:46:11;;;;;;;17.40;4.53;;;;;;;9.45;86.65;99851.06;5033367;28;20068;-50
2023/01/08 09:48:40;;;;;;;15.98;4.72;;;;;;;9.67;86.52;99852.97;5028761;28;20107;-51
2023/01/08 09:51:14;;;;;;;12.00;2.97;;;;;;;9.81;85.17;99840.88;5033640;28;20072;-50
2023/01/08 09:53:42;;;;;;;13.65;3.28;;;;;;;9.95;83.03;99847.25;5028672;28;20056;-49
2023/01/08 09:56:15;;;;;;;15.82;2.75;;;;;;;10.06;83.55;99840.75;5033275;28;20053;-49
2023/01/08 09:58:49;;;;;;;13.35;2.50;;;;;;;10.16;83.59;99849.31;5044852;28;20052;-50
2023/01/08 10:01:21;;;;;;;8.23;2.15;;;;;;;10.15;80.04;99847.66;5053286;28;20521;-49
2023/01/08 10:04:11;;;;;;;12.40;2.45;;;;;;;10.02;79.40;99847.41;5048591;28;20136;-49
2023/01/08 10:06:40;;;;;;;10.18;2.95;;;;;;;10.07;80.75;99835.28;5052867;28;20052;-48
2023/01/08 10:09:13;;;;;;;11.27;2.72;;;;;;;9.94;80.59;99833.19;5048458;28;20053;-50
2023/01/08 10:11:43;;;;;;;10.95;3.10;;;;;;;9.82;79.60;99823.13;5053084;28;20049;-49
2023/01/08 10:14:20;;;;;;;15.75;2.78;;;;;;;9.83;81.57;99830.09;5040794;28;20053;-49
2023/01/08 10:16:53;;;;;;;12.68;2.92;;;;;;;10.02;79.96;99818.25;5032713;28;20120;-49
2023/01/08 10:19:20;;;;;;;12.73;2.60;;;;;;;10.02;79.77;99808.47;5028730;28;20136;-49
2023/01/08 10:21:47;;;;;;;9.75;2.30;;;;;;;10.16;79.12;99809.56;5030883;28;20087;-49
2023/01/08 10:24:14;;;;;;;9.07;2.08;;;;;;;10.15;77.47;99802.59;5033062;28;20058;-48
2023/01/08 10:26:41;;;;;;;8.95;2.20;;;;;;;10.14;77.71;99799.13;5028684;28;20483;-49
2023/01/08 10:29:17;;;;;;;7.70;2.33;;;;;;;10.34;78.70;99791.59;5033083;28;20056;-49
2023/01/08 10:31:47;;;;;;;8.63;2.33;;;;;;;10.37;76.17;99796.56;5028341;28;20056;-50
2023/01/08 10:34:24;;;;;;;13.93;2.80;;;;;;;10.50;76.68;99785.38;5032800;28;20058;-50
2023/01/08 10:36:52;;;;;;;10.38;2.72;;;;;;;10.73;78.40;99772.09;5032643;28;20107;-51
2023/01/08 10:39:24;;;;;;;11.50;3.25;;;;;;;10.90;75.79;99775.44;5036844;28;20045;-50
2023/01/08 10:41:54;;;;;;;9.45;2.75;;;;;;;10.83;76.82;99771.03;5032514;28;20053;-56
2023/01/08 10:44:23;;;;;;;8.50;2.42;;;;;;;10.87;76.76;99762.50;5035695;28;20041;-50
2023/01/08 10:46:56;;;;;;;10.30;2.33;;;;;;;10.95;76.78;99761.59;5052514;28;20231;-52
2023/01/08 10:49:32;;;;;;;7.90;1.90;;;;;;;11.06;75.64;99761.19;5045844;28;20049;-52
2023/01/08 10:51:59;;;;;;;9.00;2.20;;;;;;;11.08;76.35;99755.69;5034676;28;20459;-53
2023/01/08 10:54:36;;;;;;;7.22;1.80;;;;;;;10.98;75.42;99747.16;5036767;28;20057;-52
2023/01/08 10:57:25;;;;;;;6.95;1.70;;;;;;;11.09;75.86;99736.09;5032744;28;20037;-52
2023/01/08 10:59:52;;;;;;;7.22;1.65;;;;;;;11.14;75.58;99731.06;5032473;28;20033;-53
2023/01/08 11:02:37;;;;;;;7.43;1.80;;;;;;;11.23;74.58;99732.63;5036345;28;20107;-53
2023/01/08 11:05:09;;;;;;;7.65;1.70;;;;;;;11.92;73.15;99725.38;5032467;28;20057;-53
2023/01/08 11:07:36;;;;;;;6.60;1.90;;;;;;;11.87;71.95;99723.22;5035810;28;20069;-52
2023/01/08 11:10:03;;;;;;;7.97;1.80;;;;;;;11.71;71.50;99717.13;5027626;28;20054;-52
2023/01/08 11:12:37;;;;;;;12.45;1.90;;;;;;;11.79;72.57;99718.84;5015222;28;20056;-51
2023/01/08 11:15:22;;;;;;;11.80;2.13;;;;;;;11.59;71.47;99702.69;5026124;28;20358;-50
2023/01/08 11:17:49;;;;;;;6.18;1.70;;;;;;;11.40;75.27;99698.75;5036233;28;20065;-52
2023/01/08 11:20:29;;;;;;;7.45;1.92;;;;;;;11.41;73.20;99694.28;5031384;28;20403;-50
2023/01/08 11:23:05;;;;;;;7.97;2.00;;;;;;;11.22;74.77;99691.16;5032995;28;20099;-49
2023/01/08 11:25:34;;;;;;;8.10;1.83;;;;;;;11.03;73.96;99689.06;5035686;28;20049;-51
2023/01/08 11:28:03;;;;;;;10.05;2.00;;;;;;;10.97;77.30;99689.78;5031543;28;20523;-49
2023/01/08 11:30:32;;;;;;;8.05;2.17;;;;;;;10.91;75.42;99684.22;5036452;28;20050;-49
2023/01/08 11:33:20;;;;;;;7.65;2.40;;;;;;;10.78;76.37;99675.22;5031207;28;20057;-52
2023/01/08 11:35:51;;;;;;;11.15;2.60;;;;;;;10.76;75.69;99673.56;5036112;28;20042;-50
2023/01/08 11:38:18;;;;;;;5.95;1.83;;;;;;;10.81;75.82;99658.97;5031586;28;20558;-52
2023/01/08 11:41:14;;;;;;;9.18;2.13;;;;;;;10.68;76.49;99648.97;5036182;28;20083;-53
2023/01/08 11:44:05;;;;;;;11.07;2.50;;;;;;;10.76;75.47;99648.88;5050023;28;20076;-53
2023/01/08 11:46:56;;;;;;;10.35;2.20;;;;;;;10.54;76.06;99643.47;5030781;28;20064;-52
2023/01/08 11:49:58;;;;;;;6.87;2.00;;;;;;;10.66;75.28;99641.19;5035212;28;20183;-53